Time;durP1;ratioP1;P1;durP2;ratioP2;P2;SDS_P1;SDS_P2;PMS_P1;PMS_P2;Temp;Humidity;BMP_temperature;BMP_pressure;BME280_temperature;BME280_humidity;BME280_pressure;Samples;Min_cycle;Max_cycle;Signal;HPM_P1;HPM_P2
2022/05/04 00:00:25;;;;;;;3.97;3.63;;;14.80;99.90;;;;;;4917314;29;20230;-82
2022/05/04 00:02:53;;;;;;;4.03;3.72;;;14.80;99.90;;;;;;4917265;29;20226;-82
2022/05/04 00:05:21;;;;;;;3.60;3.30;;;14.80;99.90;;;;;;4917492;29;20250;-81
2022/05/04 00:07:51;;;;;;;4.32;3.63;;;14.80;99.90;;;;;;4917500;29;20219;-81
2022/05/04 00:10:19;;;;;;;4.28;3.97;;;14.80;99.90;;;;;;4917150;29;20238;-81
2022/05/04 00:12:47;;;;;;;4.65;4.00;;;14.80;99.90;;;;;;4916516;29;20226;-81
2022/05/04 00:15:16;;;;;;;3.63;3.33;;;14.90;99.90;;;;;;4917525;29;20206;-82
2022/05/04 00:17:44;;;;;;;7.00;3.95;;;14.90;99.90;;;;;;4917454;29;20224;-82
2022/05/04 00:20:13;;;;;;;6.35;4.50;;;14.90;99.90;;;;;;4916597;29;20309;-82
2022/05/04 00:22:41;;;;;;;3.63;3.33;;;14.90;99.90;;;;;;4916752;29;20231;-82
2022/05/04 00:25:12;;;;;;;10.77;3.90;;;15.00;99.90;;;;;;4916855;29;20271;-81
2022/05/04 00:27:40;;;;;;;5.05;4.00;;;15.00;99.90;;;;;;4917239;29;20306;-81
2022/05/04 00:30:09;;;;;;;4.10;3.70;;;15.00;99.90;;;;;;4916747;29;20229;-82
2022/05/04 00:32:37;;;;;;;3.58;3.28;;;15.00;99.90;;;;;;4916703;29;20298;-81
2022/05/04 00:35:07;;;;;;;4.10;3.80;;;14.90;99.90;;;;;;4916755;29;20309;-82
2022/05/04 00:37:35;;;;;;;5.88;4.00;;;14.90;99.90;;;;;;4916670;29;20309;-81
2022/05/04 00:40:04;;;;;;;3.97;3.67;;;14.90;99.90;;;;;;4917204;29;20244;-82
2022/05/04 00:42:33;;;;;;;3.78;3.47;;;14.80;99.90;;;;;;4916328;29;20276;-82
2022/05/04 00:45:02;;;;;;;3.85;3.55;;;14.80;99.90;;;;;;4916447;29;20230;-81
2022/05/04 00:47:30;;;;;;;4.60;4.10;;;14.70;99.90;;;;;;4916602;29;20206;-81
2022/05/04 00:50:04;;;;;;;4.05;3.65;;;14.80;99.90;;;;;;4916670;29;20290;-81
2022/05/04 00:52:34;;;;;;;3.78;3.47;;;14.70;99.90;;;;;;4917087;29;20241;-81
2022/05/04 00:55:04;;;;;;;4.07;3.78;;;14.70;99.90;;;;;;4916444;29;20260;-81
2022/05/04 01:00:22;;;;;;;6.05;3.50;;;14.70;99.90;;;;;;4916369;29;20282;-81
2022/05/04 01:02:51;;;;;;;6.22;4.03;;;14.70;99.90;;;;;;4916295;29;20226;-82
2022/05/04 01:05:19;;;;;;;9.68;3.70;;;14.70;99.90;;;;;;4916704;29;20269;-81
2022/05/04 01:07:48;;;;;;;5.28;3.80;;;14.70;99.90;;;;;;4916926;29;20210;-81
2022/05/04 01:10:16;;;;;;;4.75;4.35;;;14.70;99.90;;;;;;4915583;29;20216;-81
2022/05/04 01:12:48;;;;;;;4.95;4.07;;;14.70;99.90;;;;;;4915944;29;20242;-81
2022/05/04 01:15:16;;;;;;;4.30;3.75;;;14.70;99.90;;;;;;4915779;29;20247;-81
2022/05/04 01:17:45;;;;;;;3.35;2.95;;;14.70;99.90;;;;;;4916535;29;20270;-81
2022/05/04 01:20:14;;;;;;;3.83;3.53;;;14.70;99.90;;;;;;4916308;29;20214;-81
2022/05/04 01:22:43;;;;;;;4.45;4.03;;;14.60;99.90;;;;;;4916429;29;20266;-81
2022/05/04 01:25:12;;;;;;;6.10;5.15;;;14.60;99.90;;;;;;4916287;29;20215;-81
2022/05/04 01:27:41;;;;;;;3.67;3.38;;;14.60;99.90;;;;;;4916022;29;20245;-81
2022/05/04 01:30:11;;;;;;;3.88;3.58;;;14.60;99.90;;;;;;4916021;29;20297;-82
2022/05/04 01:32:40;;;;;;;11.85;3.53;;;14.60;99.90;;;;;;4916346;29;20250;-82
2022/05/04 01:35:09;;;;;;;4.22;3.83;;;14.50;99.90;;;;;;4916221;29;20214;-82
2022/05/04 01:37:37;;;;;;;3.67;3.38;;;14.50;99.90;;;;;;4916454;29;20241;-81
2022/05/04 01:40:09;;;;;;;4.28;3.97;;;14.40;99.90;;;;;;4916177;29;20210;-81
2022/05/04 01:42:37;;;;;;;4.72;4.30;;;14.40;99.90;;;;;;4915963;29;20234;-81
2022/05/04 01:45:09;;;;;;;3.53;3.28;;;14.40;99.90;;;;;;4916088;29;20297;-81
2022/05/04 01:47:38;;;;;;;3.58;3.28;;;14.30;99.90;;;;;;4915999;29;20238;-81
2022/05/04 01:50:07;;;;;;;8.35;3.60;;;14.30;99.90;;;;;;4916030;29;20207;-82
2022/05/04 01:52:35;;;;;;;5.35;4.53;;;14.20;99.90;;;;;;4915575;29;20250;-81
2022/05/04 01:55:04;;;;;;;4.00;3.60;;;14.20;99.90;;;;;;4916198;29;20290;-81
2022/05/04 01:57:34;;;;;;;4.22;3.92;;;14.10;99.90;;;;;;4916228;29;20207;-81
2022/05/04 02:00:03;;;;;;;5.75;3.47;;;14.10;99.90;;;;;;4916178;29;20214;-82
2022/05/04 02:02:31;;;;;;;5.07;3.80;;;14.00;99.90;;;;;;4915816;29;20314;-81
2022/05/04 02:05:00;;;;;;;4.13;3.72;;;14.00;99.90;;;;;;4915885;29;20202;-81
2022/05/04 02:07:29;;;;;;;5.63;3.65;;;14.00;99.90;;;;;;4915979;29;20294;-82
2022/05/04 02:09:57;;;;;;;5.30;4.38;;;13.90;99.90;;;;;;4915715;29;20218;-81
2022/05/04 02:12:28;;;;;;;3.55;3.28;;;13.90;99.90;;;;;;4915501;29;20234;-81
2022/05/04 02:14:58;;;;;;;4.63;4.22;;;13.90;99.90;;;;;;4914999;29;20238;-81
2022/05/04 02:17:26;;;;;;;4.45;4.03;;;13.80;99.90;;;;;;4915968;29;20297;-81
2022/05/04 02:19:55;;;;;;;4.03;3.72;;;13.80;99.90;;;;;;4915721;29;20222;-81
2022/05/04 02:22:23;;;;;;;3.83;3.50;;;13.70;99.90;;;;;;4917920;29;20230;-81
2022/05/04 02:24:51;;;;;;;4.18;3.78;;;13.70;99.90;;;;;;4919236;29;20290;-81
2022/05/04 02:27:20;;;;;;;3.65;3.38;;;13.60;99.90;;;;;;4919486;29;20294;-81
2022/05/04 02:29:48;;;;;;;4.00;3.70;;;13.60;99.90;;;;;;4918924;29;20238;-81
2022/05/04 02:32:19;;;;;;;4.55;4.10;;;13.60;99.90;;;;;;4918849;29;20317;-82
2022/05/04 02:40:27;;;;;;;3.85;3.55;;;13.60;99.90;;;;;;4906430;29;20219;-81
2022/05/04 02:42:56;;;;;;;4.03;3.70;;;13.60;99.90;;;;;;4918521;29;20241;-81
2022/05/04 02:45:24;;;;;;;4.43;4.07;;;13.60;99.90;;;;;;4918374;29;20319;-81
2022/05/04 02:47:54;;;;;;;4.75;4.30;;;13.60;99.90;;;;;;4918392;29;20215;-81
2022/05/04 02:50:22;;;;;;;4.10;3.75;;;13.60;99.90;;;;;;4918812;29;20210;-81
2022/05/04 02:52:50;;;;;;;6.55;4.72;;;13.70;99.90;;;;;;4918710;29;20265;-80
2022/05/04 02:55:19;;;;;;;5.05;4.60;;;13.70;99.90;;;;;;4918297;29;20309;-81
2022/05/04 02:57:47;;;;;;;4.40;4.00;;;13.70;99.90;;;;;;4918480;29;20218;-80
2022/05/04 03:00:16;;;;;;;4.03;3.67;;;13.70;99.90;;;;;;4918087;29;20263;-81
2022/05/04 03:02:45;;;;;;;3.92;3.65;;;13.70;99.90;;;;;;4918465;29;20325;-81
2022/05/04 03:05:16;;;;;;;4.15;3.85;;;13.70;99.90;;;;;;4918876;29;20289;-81
2022/05/04 03:07:46;;;;;;;4.30;3.90;;;13.80;99.90;;;;;;4918334;29;20222;-80
2022/05/04 03:10:14;;;;;;;4.80;4.40;;;13.80;99.90;;;;;;4918205;29;20238;-81
2022/05/04 03:12:43;;;;;;;6.13;4.32;;;13.80;99.90;;;;;;4917949;29;20313;-81
2022/05/04 03:22:47;;;;;;;4.63;4.22;;;13.80;99.90;;;;;;4918208;29;20250;-81
2022/05/04 03:25:16;;;;;;;4.53;4.13;;;13.70;99.90;;;;;;4917891;29;20286;-80
2022/05/04 03:27:45;;;;;;;4.50;4.20;;;13.70;99.90;;;;;;4918067;29;20226;-81
2022/05/04 03:30:14;;;;;;;7.22;4.82;;;13.70;99.90;;;;;;4917930;29;20245;-81
2022/05/04 03:32:42;;;;;;;4.60;4.22;;;13.70;99.90;;;;;;4917606;29;20226;-81
2022/05/04 03:35:11;;;;;;;5.28;4.88;;;13.70;99.90;;;;;;4917434;29;20295;-81
2022/05/04 03:37:39;;;;;;;4.45;4.13;;;13.60;99.90;;;;;;4917621;29;20294;-82
2022/05/04 03:40:13;;;;;;;4.75;4.35;;;13.60;99.90;;;;;;4918047;29;20270;-81
2022/05/04 03:42:41;;;;;;;4.50;4.20;;;13.60;99.90;;;;;;4917564;29;20277;-81
2022/05/04 03:45:10;;;;;;;5.88;5.28;;;13.70;99.90;;;;;;4917834;29;20290;-81
2022/05/04 03:47:39;;;;;;;4.95;4.55;;;13.60;99.90;;;;;;4917744;29;20221;-81
2022/05/04 03:50:08;;;;;;;5.13;4.72;;;13.70;99.90;;;;;;4917308;29;20214;-81
2022/05/04 03:52:36;;;;;;;8.48;5.35;;;13.70;99.90;;;;;;4917331;29;20318;-81
2022/05/04 03:55:05;;;;;;;6.47;4.97;;;13.70;99.90;;;;;;4917282;29;20286;-81
2022/05/04 03:57:35;;;;;;;5.45;5.05;;;13.70;99.90;;;;;;4917945;29;20301;-81
2022/05/04 04:00:04;;;;;;;5.60;5.10;;;13.70;99.90;;;;;;4917279;29;20317;-80
2022/05/04 04:02:32;;;;;;;8.27;4.78;;;13.70;99.90;;;;;;4916735;29;20290;-81
2022/05/04 04:05:01;;;;;;;5.00;4.55;;;13.70;99.90;;;;;;4917323;29;20274;-81
2022/05/04 04:07:29;;;;;;;4.53;4.13;;;13.70;99.90;;;;;;4916932;29;20238;-82
2022/05/04 04:09:57;;;;;;;5.65;5.07;;;13.70;99.90;;;;;;4917406;29;20206;-81
2022/05/04 04:12:26;;;;;;;9.02;4.90;;;13.80;99.90;;;;;;4917000;29;20230;-81
2022/05/04 04:14:56;;;;;;;4.15;3.83;;;13.70;99.90;;;;;;4916365;29;20251;-81
2022/05/04 04:17:24;;;;;;;8.63;4.10;;;13.70;99.90;;;;;;4917214;29;20230;-81
2022/05/04 04:22:34;;;;;;;4.53;4.07;;;13.60;99.90;;;;;;4916133;29;20257;-81
2022/05/04 04:25:03;;;;;;;4.20;3.90;;;13.60;99.90;;;;;;4917021;29;20210;-80
2022/05/04 04:27:32;;;;;;;4.75;4.28;;;13.60;99.90;;;;;;4916952;29;20293;-81
2022/05/04 04:30:02;;;;;;;4.90;4.43;;;13.50;99.90;;;;;;4916982;29;20207;-81
2022/05/04 04:32:30;;;;;;;5.35;4.18;;;13.40;99.90;;;;;;4916625;29;20330;-81
2022/05/04 04:34:58;;;;;;;5.22;4.53;;;13.50;99.90;;;;;;4916760;29;20314;-81
2022/05/04 04:37:27;;;;;;;3.95;3.63;;;13.50;99.90;;;;;;4917019;29;20210;-80
2022/05/04 04:39:55;;;;;;;5.15;4.75;;;13.50;99.90;;;;;;4916677;29;20242;-81
2022/05/04 04:42:23;;;;;;;5.30;4.88;;;13.50;99.90;;;;;;4916489;29;20250;-80
2022/05/04 04:44:52;;;;;;;4.53;4.13;;;13.50;99.90;;;;;;4915876;29;20210;-81
2022/05/04 04:47:21;;;;;;;5.28;4.25;;;13.50;99.90;;;;;;4916708;29;20234;-81
2022/05/04 04:49:50;;;;;;;4.97;4.63;;;13.50;99.90;;;;;;4916492;29;20241;-81
2022/05/04 04:52:18;;;;;;;5.53;5.03;;;13.40;99.90;;;;;;4916324;29;20226;-81
2022/05/04 04:54:47;;;;;;;5.72;5.18;;;13.30;99.90;;;;;;4916252;29;20230;-81
2022/05/04 04:57:15;;;;;;;4.47;4.07;;;13.30;99.90;;;;;;4916513;29;20291;-81
2022/05/04 04:59:49;;;;;;;4.72;4.15;;;13.20;99.90;;;;;;4916432;29;20214;-81
2022/05/04 05:02:18;;;;;;;4.90;4.50;;;13.20;99.90;;;;;;4916157;29;20309;-81
2022/05/04 05:04:48;;;;;;;4.97;4.43;;;13.30;99.90;;;;;;4916675;29;20214;-81
2022/05/04 05:07:16;;;;;;;4.90;4.47;;;13.30;99.90;;;;;;4916458;29;20234;-80
2022/05/04 05:09:44;;;;;;;6.80;4.97;;;13.30;99.90;;;;;;4916355;29;20304;-80
2022/05/04 05:12:13;;;;;;;5.55;4.13;;;13.40;99.90;;;;;;4916197;29;20230;-80
2022/05/04 05:17:28;;;;;;;5.82;5.32;;;13.50;99.90;;;;;;4916765;29;20254;-81
2022/05/04 05:19:57;;;;;;;6.65;5.97;;;13.50;99.90;;;;;;4916291;29;20210;-80
2022/05/04 05:22:26;;;;;;;6.68;5.72;;;13.50;99.90;;;;;;4916023;29;20222;-80
2022/05/04 05:24:54;;;;;;;6.45;5.85;;;13.40;99.90;;;;;;4916120;29;20274;-80
2022/05/04 05:27:23;;;;;;;5.13;4.72;;;13.30;99.90;;;;;;4916732;29;20233;-80
2022/05/04 05:29:51;;;;;;;5.97;5.43;;;13.30;99.90;;;;;;4916244;29;20274;-81
2022/05/04 05:32:20;;;;;;;5.95;5.45;;;13.30;99.90;;;;;;4915788;29;20256;-81
2022/05/04 05:34:48;;;;;;;5.10;4.65;;;13.40;99.90;;;;;;4916517;29;20297;-80
2022/05/04 05:37:20;;;;;;;5.97;5.50;;;13.50;99.90;;;;;;4916143;29;20298;-81
2022/05/04 05:39:48;;;;;;;5.50;5.00;;;13.50;99.90;;;;;;4916464;29;20238;-81
2022/05/04 05:42:17;;;;;;;5.68;5.18;;;13.60;99.90;;;;;;4916053;29;20298;-81
2022/05/04 05:44:46;;;;;;;5.82;5.22;;;13.70;99.90;;;;;;4915999;29;20222;-80
2022/05/04 05:47:14;;;;;;;5.47;4.68;;;13.80;99.90;;;;;;4916118;29;20212;-81
2022/05/04 05:49:42;;;;;;;6.40;5.80;;;14.00;99.90;;;;;;4915743;29;20210;-81
2022/05/04 05:52:10;;;;;;;6.28;5.75;;;14.10;99.90;;;;;;4916224;29;20321;-81
2022/05/04 05:54:40;;;;;;;9.48;6.13;;;14.20;99.90;;;;;;4916856;29;20329;-82
2022/05/04 05:57:09;;;;;;;7.05;5.30;;;14.40;99.90;;;;;;4919424;29;20230;-81
2022/05/04 05:59:37;;;;;;;5.57;5.07;;;14.50;99.90;;;;;;4919597;29;20234;-81
2022/05/04 06:02:06;;;;;;;5.20;4.75;;;14.60;99.90;;;;;;4919261;29;20230;-81
2022/05/04 06:04:34;;;;;;;5.90;4.13;;;14.70;99.90;;;;;;4919582;29;20214;-81
2022/05/04 06:07:02;;;;;;;6.65;5.95;;;14.80;99.90;;;;;;4919384;29;20234;-81
2022/05/04 06:09:31;;;;;;;5.63;5.03;;;14.90;99.90;;;;;;4919950;29;20211;-81
2022/05/04 06:12:02;;;;;;;7.28;6.05;;;15.00;99.90;;;;;;4919005;29;20313;-80
2022/05/04 06:14:30;;;;;;;5.13;4.63;;;15.10;99.90;;;;;;4918987;29;20245;-81
2022/05/04 06:16:59;;;;;;;6.97;5.35;;;15.20;99.90;;;;;;4918899;29;20314;-82
2022/05/04 06:19:27;;;;;;;12.55;5.78;;;15.30;99.90;;;;;;4918428;29;20203;-79
2022/05/04 06:21:55;;;;;;;6.20;5.70;;;15.40;99.90;;;;;;4935008;29;20309;-80
2022/05/04 06:24:23;;;;;;;6.00;5.50;;;15.50;99.90;;;;;;4934315;29;20206;-83
2022/05/04 06:26:52;;;;;;;7.68;5.72;;;15.60;99.90;;;;;;4921937;29;20209;-83
2022/05/04 06:34:06;;;;;;;6.78;5.45;;;15.70;99.90;;;;;;4938120;29;20274;-84
2022/05/04 06:34:59;;;;;;;5.03;4.63;;;15.90;99.90;;;;;;4923533;29;20297;-83
2022/05/04 06:37:27;;;;;;;8.70;5.68;;;16.10;99.90;;;;;;4929354;29;20289;-83
2022/05/04 06:39:56;;;;;;;4.82;4.43;;;16.20;99.90;;;;;;4934213;29;20290;-83
2022/05/04 06:42:24;;;;;;;7.00;5.32;;;16.40;99.90;;;;;;4930195;29;20221;-83
2022/05/04 06:44:54;;;;;;;5.68;4.82;;;16.50;99.90;;;;;;4937515;29;20214;-83
2022/05/04 06:47:22;;;;;;;5.35;4.88;;;16.80;99.90;;;;;;4937493;29;20194;-83
2022/05/04 06:49:50;;;;;;;6.85;5.53;;;17.10;99.90;;;;;;4925080;29;20293;-83
2022/05/04 06:52:20;;;;;;;5.35;4.95;;;17.40;99.90;;;;;;4937930;29;20237;-84
2022/05/04 06:54:48;;;;;;;6.03;5.32;;;17.60;99.90;;;;;;4926705;29;20233;-81
2022/05/04 06:57:17;;;;;;;4.95;4.53;;;17.90;99.90;;;;;;4918679;29;20253;-83
2022/05/04 06:59:45;;;;;;;6.28;5.13;;;18.10;99.90;;;;;;4922170;29;20221;-83
2022/05/04 07:02:15;;;;;;;4.53;4.18;;;18.40;99.90;;;;;;4926884;29;20301;-83
2022/05/04 07:04:44;;;;;;;3.97;3.67;;;18.80;99.90;;;;;;4938292;29;20281;-84
2022/05/04 07:07:12;;;;;;;4.80;4.40;;;19.00;99.90;;;;;;4937170;29;20226;-83
2022/05/04 07:09:40;;;;;;;5.53;5.03;;;19.30;99.90;;;;;;4937962;29;20245;-83
2022/05/04 07:12:09;;;;;;;4.20;3.90;;;19.20;99.90;;;;;;4937812;29;20264;-82
2022/05/04 07:14:38;;;;;;;6.15;5.25;;;19.10;99.90;;;;;;4937632;29;20225;-83
2022/05/04 07:17:06;;;;;;;5.78;4.75;;;18.80;99.90;;;;;;4937567;29;20313;-83
2022/05/04 07:19:36;;;;;;;6.07;4.82;;;18.50;99.90;;;;;;4936179;29;20271;-83
2022/05/04 07:22:05;;;;;;;7.45;4.70;;;18.30;99.90;;;;;;4926968;29;20289;-83
2022/05/04 07:24:33;;;;;;;5.43;4.93;;;18.30;99.90;;;;;;4934673;29;20229;-84
2022/05/04 07:27:02;;;;;;;4.95;4.47;;;18.70;99.90;;;;;;4937678;29;20266;-84
2022/05/04 07:29:30;;;;;;;7.38;4.32;;;18.90;99.90;;;;;;4937679;29;20206;-86
2022/05/04 07:31:59;;;;;;;4.57;4.28;;;19.60;99.90;;;;;;4937259;29;20312;-83
2022/05/04 07:34:27;;;;;;;4.53;4.13;;;20.90;99.90;;;;;;4937486;29;20214;-84
2022/05/04 07:36:57;;;;;;;6.53;4.38;;;22.00;99.90;;;;;;4937306;29;20300;-83
2022/05/04 07:42:24;;;;;;;3.95;3.60;;;24.60;99.70;;;;;;4918741;29;20290;-83
2022/05/04 07:44:59;;;;;;;3.78;3.53;;;26.00;95.80;;;;;;4928649;29;20220;-82
2022/05/04 07:47:31;;;;;;;3.20;3.00;;;27.50;91.80;;;;;;4922652;29;20277;-83
2022/05/04 07:50:00;;;;;;;5.57;3.88;;;28.10;85.70;;;;;;4920650;29;20282;-83
2022/05/04 07:52:30;;;;;;;3.72;3.42;;;29.10;79.60;;;;;;4936752;29;20229;-83
2022/05/04 07:54:59;;;;;;;6.55;3.88;;;30.50;74.10;;;;;;4936874;29;20244;-83
2022/05/04 07:57:27;;;;;;;3.80;3.47;;;31.00;69.60;;;;;;4927469;29;20231;-82
2022/05/04 08:05:33;;;;;;;3.53;3.30;;;32.90;60.00;;;;;;4937282;29;20221;-83
2022/05/04 08:08:03;;;;;;;5.45;3.50;;;33.30;62.20;;;;;;4919985;29;20210;-84
2022/05/04 08:10:32;;;;;;;4.18;3.88;;;33.00;59.10;;;;;;4930812;29;20296;-83
2022/05/04 08:13:00;;;;;;;5.78;3.85;;;33.30;58.80;;;;;;4917386;29;20260;-83
2022/05/04 08:15:40;;;;;;;5.05;4.65;;;33.80;57.00;;;;;;4925190;29;20218;-83
2022/05/04 08:18:17;;;;;;;3.78;3.47;;;34.20;53.90;;;;;;4936137;29;20221;-82
2022/05/04 08:21:12;;;;;;;5.25;3.70;;;34.00;53.90;;;;;;4936661;29;20268;-83
2022/05/04 08:23:46;;;;;;;3.42;3.17;;;33.90;54.30;;;;;;4933698;29;20212;-82
2022/05/04 08:26:23;;;;;;;3.90;3.53;;;33.20;55.00;;;;;;4919824;29;20246;-83
2022/05/04 08:28:52;;;;;;;2.97;2.78;;;33.70;54.70;;;;;;4915312;29;20205;-83
2022/05/04 08:31:23;;;;;;;3.80;3.40;;;34.20;54.30;;;;;;4917486;29;20278;-83
2022/05/04 08:34:00;;;;;;;4.20;3.90;;;34.30;52.30;;;;;;4917183;29;20301;-82
2022/05/04 08:36:35;;;;;;;4.07;3.78;;;34.00;50.60;;;;;;4917282;29;20222;-82
2022/05/04 08:39:40;;;;;;;4.18;3.88;;;33.40;51.10;;;;;;4922416;29;20205;-83
2022/05/04 08:43:13;;;;;;;3.80;3.50;;;32.30;52.00;;;;;;4936373;29;20228;-84
2022/05/04 08:49:47;;;;;;;4.13;3.83;;;29.00;57.50;;;;;;4840660;29;20261;-83
2022/05/04 09:00:52;;;;;;;10.77;4.65;;;26.80;63.10;;;;;;4881412;29;20233;-83
2022/05/04 09:03:21;;;;;;;3.78;3.47;;;27.50;62.40;;;;;;4840140;29;20227;-88
2022/05/04 09:05:54;;;;;;;3.80;3.50;;;28.20;62.10;;;;;;4857128;29;20217;-86
2022/05/04 09:08:56;;;;;;;4.45;4.03;;;28.90;63.10;;;;;;4859198;29;20209;-83
2022/05/04 09:11:26;;;;;;;4.22;3.83;;;30.30;61.80;;;;;;4875287;29;20211;-85
2022/05/04 09:13:54;;;;;;;4.00;3.67;;;31.20;58.80;;;;;;4877033;29;20215;-85
2022/05/04 09:16:34;;;;;;;4.40;3.85;;;31.90;59.00;;;;;;4876609;29;20231;-85
2022/05/04 09:19:06;;;;;;;3.72;3.42;;;32.10;55.50;;;;;;4876907;29;20231;-85
2022/05/04 09:21:35;;;;;;;5.82;3.70;;;32.30;56.30;;;;;;4876800;29;20218;-85
2022/05/04 09:24:05;;;;;;;4.10;3.78;;;32.60;56.80;;;;;;4876642;29;20221;-85
2022/05/04 09:26:42;;;;;;;3.55;3.25;;;33.00;53.20;;;;;;4876722;29;20195;-84
2022/05/04 09:29:15;;;;;;;4.05;3.75;;;33.30;53.80;;;;;;4882095;29;20305;-84
2022/05/04 09:31:48;;;;;;;4.88;4.47;;;33.20;53.40;;;;;;4901200;29;20267;-85
2022/05/04 09:34:17;;;;;;;4.28;3.88;;;32.80;52.00;;;;;;4901179;29;20210;-85
2022/05/04 09:45:11;;;;;;;4.00;3.50;;;32.90;51.30;;;;;;4900750;29;20270;-84
2022/05/04 09:47:42;;;;;;;4.88;3.38;;;32.90;52.60;;;;;;4901297;29;20218;-84
2022/05/04 09:50:13;;;;;;;3.78;3.50;;;32.70;54.10;;;;;;4900569;29;20210;-85
2022/05/04 09:52:50;;;;;;;4.90;3.97;;;32.40;51.30;;;;;;4901225;29;20230;-85
2022/05/04 09:55:22;;;;;;;4.40;4.00;;;32.60;51.80;;;;;;4900930;29;20210;-85
2022/05/04 09:57:52;;;;;;;4.15;3.85;;;32.10;52.70;;;;;;4901003;29;20234;-85
2022/05/04 10:00:26;;;;;;;4.13;3.70;;;31.90;53.30;;;;;;4900527;29;20241;-85
2022/05/04 10:02:57;;;;;;;3.88;3.58;;;32.20;53.50;;;;;;4901067;29;20242;-85
2022/05/04 10:05:26;;;;;;;3.88;3.60;;;32.40;54.70;;;;;;4900531;29;20250;-84
2022/05/04 10:07:54;;;;;;;4.10;3.35;;;33.00;54.10;;;;;;4900665;29;20294;-85
2022/05/04 10:10:24;;;;;;;4.10;3.70;;;33.30;53.60;;;;;;4900562;29;20214;-84
2022/05/04 10:12:53;;;;;;;4.25;3.95;;;33.40;51.50;;;;;;4900874;29;20227;-85
2022/05/04 10:15:21;;;;;;;4.30;3.90;;;32.90;52.20;;;;;;4900055;29;20302;-84
2022/05/04 10:17:55;;;;;;;4.13;3.83;;;32.40;52.80;;;;;;4900412;29;20254;-85
2022/05/04 10:20:37;;;;;;;5.10;4.60;;;32.30;53.00;;;;;;4900289;29;20211;-85
2022/05/04 10:23:13;;;;;;;4.85;4.45;;;32.20;53.00;;;;;;4900106;29;20231;-85
2022/05/04 10:25:43;;;;;;;4.13;3.83;;;32.30;54.20;;;;;;4900328;29;20297;-85
2022/05/04 10:28:14;;;;;;;5.28;4.32;;;32.20;54.70;;;;;;4900419;29;20218;-85
2022/05/04 10:30:48;;;;;;;4.15;3.85;;;32.20;53.50;;;;;;4900061;29;20329;-85
2022/05/04 10:33:19;;;;;;;4.78;4.30;;;32.30;53.50;;;;;;4899892;29;20249;-85
2022/05/04 10:35:57;;;;;;;4.25;3.85;;;32.20;52.60;;;;;;4900017;29;20219;-86
2022/05/04 10:38:33;;;;;;;3.88;3.58;;;32.10;52.50;;;;;;4900325;29;20215;-85
2022/05/04 10:41:02;;;;;;;3.65;3.38;;;32.40;52.70;;;;;;4899672;29;20221;-85
2022/05/04 10:43:37;;;;;;;3.78;3.45;;;32.50;53.10;;;;;;4899140;29;20231;-85
2022/05/04 10:46:07;;;;;;;5.28;4.85;;;32.00;51.70;;;;;;4899637;29;20210;-85
2022/05/04 10:48:37;;;;;;;4.07;3.78;;;31.20;52.90;;;;;;4899700;29;20215;-85
2022/05/04 10:51:12;;;;;;;4.53;4.13;;;31.30;53.80;;;;;;4899506;29;20221;-85
2022/05/04 10:53:42;;;;;;;5.20;4.70;;;31.50;53.30;;;;;;4900199;29;20269;-85
2022/05/04 10:56:14;;;;;;;4.07;3.78;;;31.00;53.10;;;;;;4899892;29;20222;-85
2022/05/04 10:58:49;;;;;;;9.45;4.50;;;30.80;53.70;;;;;;4899468;29;20255;-85
2022/05/04 11:01:30;;;;;;;3.97;3.67;;;30.40;54.80;;;;;;4899930;29;20230;-85
2022/05/04 11:04:27;;;;;;;4.75;4.25;;;29.60;55.60;;;;;;4899658;29;20298;-85
2022/05/04 11:14:17;;;;;;;4.80;3.78;;;29.80;54.70;;;;;;5092153;23;20278;-85
2022/05/04 11:31:54;;;;;;;3.60;3.30;;;31.30;54.30;;;;;;4645978;30;20935;-85
2022/05/04 11:35:21;;;;;;;5.07;4.18;;;31.80;53.60;;;;;;4716211;30;20213;-85
2022/05/04 11:49:01;;;;;;;5.78;4.05;;;31.90;52.00;;;;;;4800241;29;20213;-87
2022/05/04 11:51:36;;;;;;;3.38;3.08;;;31.70;51.70;;;;;;4786421;29;20210;-86
2022/05/04 11:54:59;;;;;;;2.92;2.72;;;31.90;53.40;;;;;;4822413;29;20225;-86
2022/05/04 11:57:42;;;;;;;4.07;2.88;;;32.30;51.70;;;;;;4813868;29;20316;-86
2022/05/04 12:00:17;;;;;;;3.67;3.38;;;32.20;50.60;;;;;;4840475;29;20244;-87
2022/05/04 12:02:49;;;;;;;4.18;3.78;;;31.40;50.40;;;;;;4840261;29;20305;-86
2022/05/04 12:09:44;;;;;;;3.03;2.60;;;31.20;51.00;;;;;;4839325;29;20213;-86
2022/05/04 12:12:21;;;;;;;4.30;3.47;;;30.80;51.90;;;;;;4858674;29;20228;-86
2022/05/04 12:14:53;;;;;;;4.00;3.45;;;30.40;53.10;;;;;;4858959;29;20264;-86
2022/05/04 12:18:03;;;;;;;4.47;3.30;;;30.00;52.30;;;;;;4858746;29;20222;-88
2022/05/04 12:20:46;;;;;;;3.60;3.30;;;30.00;52.30;;;;;;4809981;29;20212;-87
2022/05/04 12:23:15;;;;;;;3.47;3.17;;;29.20;52.50;;;;;;4839306;29;20291;-86
2022/05/04 12:25:45;;;;;;;7.50;3.17;;;28.60;53.50;;;;;;4879198;29;20219;-86
2022/05/04 12:28:14;;;;;;;3.50;3.00;;;28.00;53.90;;;;;;4879067;29;20254;-86
2022/05/04 12:33:31;;;;;;;3.60;3.33;;;27.30;55.80;;;;;;4897635;29;20230;-86
2022/05/04 12:36:01;;;;;;;5.15;3.50;;;26.80;57.20;;;;;;4897561;29;20215;-85
2022/05/04 12:38:30;;;;;;;4.53;4.13;;;26.40;57.20;;;;;;4897588;29;20318;-86
2022/05/04 12:41:01;;;;;;;6.10;4.40;;;26.10;57.80;;;;;;4897462;29;20211;-85
2022/05/04 12:43:31;;;;;;;4.35;3.95;;;25.80;58.10;;;;;;4897568;29;20326;-85
2022/05/04 12:46:00;;;;;;;4.03;3.72;;;25.50;58.40;;;;;;4898041;29;20249;-85
2022/05/04 12:48:31;;;;;;;4.18;3.83;;;25.30;58.70;;;;;;4897743;29;20217;-86
2022/05/04 12:51:00;;;;;;;7.32;4.80;;;24.70;60.40;;;;;;4897610;29;20243;-86
2022/05/04 12:53:28;;;;;;;2.30;2.20;;;23.90;61.70;;;;;;4897354;29;20314;-86
2022/05/04 12:58:53;;;;;;;3.60;2.70;;;21.70;66.90;;;;;;4897847;29;20227;-86
2022/05/04 13:01:23;;;;;;;2.20;2.00;;;20.70;71.70;;;;;;4897316;29;20246;-85
2022/05/04 13:03:52;;;;;;;3.55;3.17;;;19.60;79.10;;;;;;4897418;29;20294;-85
2022/05/04 13:06:21;;;;;;;2.83;2.60;;;19.20;90.10;;;;;;4896582;29;20235;-85
2022/05/04 13:08:50;;;;;;;3.88;3.53;;;18.70;92.50;;;;;;4897190;29;20266;-86
2022/05/04 13:11:21;;;;;;;2.75;2.58;;;18.40;95.70;;;;;;4897214;29;20267;-85
2022/05/04 13:13:50;;;;;;;3.90;3.58;;;18.30;98.20;;;;;;4897427;29;20298;-85
2022/05/04 13:16:18;;;;;;;4.72;3.85;;;18.10;99.90;;;;;;4897285;29;20266;-85
2022/05/04 13:18:46;;;;;;;3.70;3.40;;;18.00;99.90;;;;;;4897067;29;20219;-86
2022/05/04 13:21:15;;;;;;;8.32;3.53;;;18.00;99.90;;;;;;4896835;29;20245;-85
2022/05/04 13:23:44;;;;;;;4.60;3.78;;;17.90;99.90;;;;;;4896392;29;20246;-85
2022/05/04 13:26:14;;;;;;;7.18;4.03;;;17.80;99.90;;;;;;4897137;29;20231;-86
2022/05/04 13:28:44;;;;;;;5.03;4.20;;;17.70;99.90;;;;;;4897086;29;20248;-86
2022/05/04 13:31:13;;;;;;;12.73;4.47;;;17.60;99.90;;;;;;4896785;29;20290;-86
2022/05/04 13:33:41;;;;;;;4.00;3.70;;;17.50;99.90;;;;;;4896859;29;20261;-85
2022/05/04 13:36:10;;;;;;;4.03;3.72;;;17.40;99.90;;;;;;4897336;29;20326;-86
2022/05/04 13:38:38;;;;;;;5.10;4.18;;;17.30;99.90;;;;;;4897233;29;20234;-86
2022/05/04 13:41:07;;;;;;;3.92;3.63;;;17.30;99.90;;;;;;4896334;29;20255;-86
2022/05/04 13:43:35;;;;;;;5.15;4.55;;;17.40;99.90;;;;;;4896706;29;20235;-87
2022/05/04 13:46:06;;;;;;;4.53;4.13;;;17.30;99.90;;;;;;4896380;29;20307;-85
2022/05/04 13:48:35;;;;;;;4.60;4.20;;;17.10;99.90;;;;;;4896925;29;20226;-84
2022/05/04 13:53:49;;;;;;;4.95;4.55;;;17.00;99.90;;;;;;4897102;29;20294;-86
2022/05/04 13:56:17;;;;;;;8.73;4.82;;;17.00;99.90;;;;;;4896664;29;20212;-85
2022/05/04 13:58:45;;;;;;;12.38;5.75;;;17.00;99.90;;;;;;4896600;29;20290;-86
2022/05/04 14:01:15;;;;;;;9.88;6.95;;;17.00;99.90;;;;;;4896231;29;20254;-85
2022/05/04 14:03:43;;;;;;;7.43;6.70;;;17.00;99.90;;;;;;4897018;29;20238;-85
2022/05/04 14:06:16;;;;;;;6.43;5.82;;;17.00;99.90;;;;;;4896970;29;20243;-86
2022/05/04 14:08:50;;;;;;;6.95;6.35;;;16.90;99.90;;;;;;4896847;29;20223;-86
2022/05/04 14:11:37;;;;;;;7.00;6.18;;;17.00;99.90;;;;;;4897060;29;20203;-86
2022/05/04 14:17:56;;;;;;;5.43;4.90;;;17.10;99.90;;;;;;4877434;29;20266;-86
2022/05/04 14:20:48;;;;;;;9.15;5.90;;;17.20;99.90;;;;;;4893495;29;20241;-88
2022/05/04 14:27:07;;;;;;;5.00;4.40;;;17.30;99.90;;;;;;4898663;29;20214;-88
2022/05/04 14:29:36;;;;;;;7.90;4.95;;;17.50;99.90;;;;;;4900473;29;20207;-88
2022/05/04 14:32:28;;;;;;;5.18;4.72;;;17.70;99.90;;;;;;4900044;29;20320;-88
2022/05/04 14:35:40;;;;;;;7.78;4.45;;;17.90;99.90;;;;;;4898083;29;20242;-88
2022/05/04 14:38:20;;;;;;;3.95;3.60;;;18.00;99.90;;;;;;4860606;29;20229;-85
2022/05/04 14:44:19;;;;;;;4.20;3.90;;;18.10;99.90;;;;;;4952464;28;20344;-87
2022/05/04 14:46:48;;;;;;;4.13;3.72;;;18.30;99.90;;;;;;4957071;28;20217;-88
2022/05/04 14:50:12;;;;;;;4.78;3.38;;;18.40;99.90;;;;;;4956881;28;20225;-88
2022/05/04 15:00:20;;;;;;;6.88;4.68;;;18.80;99.90;;;;;;4903235;29;20206;-87
2022/05/04 15:06:22;;;;;;;4.80;3.90;;;18.80;99.90;;;;;;4956423;28;20210;-87
2022/05/04 15:09:18;;;;;;;4.18;3.58;;;18.70;99.90;;;;;;4956269;28;20307;-86